createdAt,value
2018-01-26T00:00:55.228Z,25.88
2018-01-26T00:03:22.697Z,24.10
2018-01-26T00:05:50.187Z,23.12
2018-01-26T00:08:18.447Z,23.48
2018-01-26T00:10:45.922Z,22.15
2018-01-26T00:13:13.477Z,24.85
2018-01-26T00:15:40.937Z,19.80
2018-01-26T00:18:09.167Z,22.70
2018-01-26T00:20:36.636Z,25.00
2018-01-26T00:23:04.907Z,25.30
2018-01-26T00:25:32.403Z,22.05
2018-01-26T00:27:59.940Z,24.60
2018-01-26T00:30:27.426Z,23.27
2018-01-26T00:32:55.665Z,24.60
2018-01-26T00:35:23.238Z,23.30
2018-01-26T00:37:50.797Z,25.27
2018-01-26T00:40:18.274Z,23.35
2018-01-26T00:42:46.528Z,26.33
2018-01-26T00:45:14.017Z,21.52
2018-01-26T00:47:41.473Z,22.95
2018-01-26T00:50:08.997Z,25.92
2018-01-26T00:52:36.561Z,22.70
2018-01-26T00:55:04.040Z,22.80
2018-01-26T00:57:32.293Z,21.70
2018-01-26T00:59:59.851Z,20.20
2018-01-26T01:02:27.414Z,21.48
2018-01-26T01:04:54.873Z,23.65
2018-01-26T01:07:22.369Z,22.23
2018-01-26T01:09:49.885Z,25.40
2018-01-26T01:12:18.158Z,25.60
2018-01-26T01:14:45.717Z,27.00
2018-01-26T01:17:13.180Z,23.23
2018-01-26T01:19:41.439Z,28.17
2018-01-26T01:22:08.958Z,21.45
2018-01-26T01:24:36.451Z,22.85
2018-01-26T01:27:03.916Z,21.27
2018-01-26T01:29:31.391Z,23.00
2018-01-26T01:31:59.622Z,24.08
2018-01-26T01:34:27.096Z,24.10
2018-01-26T01:36:54.652Z,21.83
2018-01-26T01:39:22.117Z,22.83
2018-01-26T01:41:49.588Z,28.60
2018-01-26T01:44:17.055Z,31.17
2018-01-26T01:46:45.287Z,28.83
2018-01-26T01:49:16.609Z,31.67
2018-01-26T01:51:44.075Z,27.15
2018-01-26T01:54:11.625Z,26.35
2018-01-26T01:56:39.124Z,27.80
2018-01-26T01:59:06.684Z,31.37
2018-01-26T02:01:34.154Z,24.60
2018-01-26T02:04:01.704Z,23.33
2018-01-26T02:06:29.185Z,29.52
2018-01-26T02:08:57.460Z,26.77
2018-01-26T02:11:24.997Z,25.02
2018-01-26T02:13:52.467Z,22.58
2018-01-26T02:16:20.700Z,25.15
2018-01-26T02:18:48.175Z,22.13
2018-01-26T02:21:15.644Z,24.37
2018-01-26T02:24:00.743Z,26.10
2018-01-26T02:26:28.224Z,23.55
2018-01-26T02:28:55.692Z,25.05
2018-01-26T02:31:23.185Z,22.77
2018-01-26T02:33:50.744Z,20.90
2018-01-26T02:36:18.292Z,21.80
2018-01-26T02:38:45.775Z,22.95
2018-01-26T02:41:13.996Z,26.15
2018-01-26T02:43:41.491Z,23.42
2018-01-26T02:46:08.964Z,26.08
2018-01-26T02:48:37.234Z,28.92
2018-01-26T02:51:05.460Z,34.60
2018-01-26T02:53:32.948Z,27.00
2018-01-26T02:56:00.430Z,32.50
2018-01-26T02:58:28.665Z,26.83
2018-01-26T03:00:56.132Z,29.12
2018-01-26T03:03:23.699Z,28.73
2018-01-26T03:05:51.261Z,28.73
2018-01-26T03:08:18.746Z,31.45
2018-01-26T03:10:46.263Z,28.20
2018-01-26T03:13:13.824Z,29.08
2018-01-26T03:15:42.109Z,28.70
2018-01-26T03:18:09.582Z,22.08
2018-01-26T03:20:37.823Z,26.75
2018-01-26T03:23:05.285Z,28.83
2018-01-26T03:25:32.844Z,25.00
2018-01-26T03:28:00.404Z,28.45
2018-01-26T03:30:27.874Z,25.58
2018-01-26T03:32:55.348Z,32.25
2018-01-26T03:35:23.586Z,22.60
2018-01-26T03:37:51.047Z,26.30
2018-01-26T03:40:18.612Z,28.98
2018-01-26T03:42:46.084Z,25.85
2018-01-26T03:45:14.336Z,29.77
2018-01-26T03:47:41.796Z,26.00
2018-01-26T03:50:09.277Z,22.40
2018-01-26T03:52:40.359Z,23.65
2018-01-26T03:55:07.856Z,25.95
2018-01-26T03:57:35.335Z,24.30
2018-01-26T04:00:03.595Z,23.65
2018-01-26T04:02:31.068Z,27.13
2018-01-26T04:04:59.298Z,26.95
2018-01-26T04:07:26.770Z,19.10
2018-01-26T04:09:54.337Z,25.58
2018-01-26T04:12:21.900Z,29.25
2018-01-26T04:14:49.360Z,25.23
2018-01-26T04:17:16.911Z,24.12
2018-01-26T04:19:44.367Z,29.65
2018-01-26T04:22:12.603Z,45.17
2018-01-26T04:24:40.106Z,33.55
2018-01-26T04:27:07.660Z,31.15
2018-01-26T04:29:35.116Z,30.73
2018-01-26T04:32:02.581Z,31.40
2018-01-26T04:34:30.044Z,32.63
2018-01-26T04:36:58.280Z,32.05
2018-01-26T04:39:25.745Z,30.70
2018-01-26T04:41:53.243Z,33.80
2018-01-26T04:44:21.469Z,33.83
2018-01-26T04:46:48.942Z,30.70
2018-01-26T04:49:16.409Z,32.95
2018-01-26T04:51:43.870Z,34.10
2018-01-26T04:54:11.425Z,41.97
2018-01-26T04:56:38.979Z,37.47
2018-01-26T04:59:06.449Z,40.15
2018-01-26T05:01:34.002Z,36.72
2018-01-26T05:04:01.552Z,36.10
2018-01-26T05:06:29.112Z,45.17
2018-01-26T05:08:56.584Z,35.45
2018-01-26T05:11:24.832Z,37.13
2018-01-26T05:13:52.276Z,35.22
2018-01-26T05:16:19.754Z,42.78
2018-01-26T05:18:47.237Z,42.80
2018-01-26T05:21:15.498Z,42.40
2018-01-26T05:23:44.469Z,40.60
2018-01-26T05:26:12.036Z,47.72
2018-01-26T05:28:39.495Z,46.60
2018-01-26T05:31:06.951Z,45.97
2018-01-26T05:33:34.418Z,51.40
2018-01-26T05:36:01.916Z,46.47
2018-01-26T05:38:29.424Z,49.25
2018-01-26T05:40:56.893Z,44.15
2018-01-26T05:43:24.443Z,51.40
2018-01-26T05:45:52.006Z,39.05
2018-01-26T05:48:19.560Z,43.35
2018-01-26T05:50:47.034Z,46.70
2018-01-26T05:53:15.252Z,50.00
2018-01-26T05:55:42.792Z,44.58
2018-01-26T05:58:10.341Z,44.60
2018-01-26T06:00:37.804Z,44.67
2018-01-26T06:03:05.314Z,46.15
2018-01-26T06:05:32.780Z,49.90
2018-01-26T06:08:00.256Z,51.20
2018-01-26T06:10:28.481Z,48.58
2018-01-26T06:12:55.952Z,48.97
2018-01-26T06:15:23.412Z,49.30
2018-01-26T06:17:50.881Z,47.03
2018-01-26T06:20:18.495Z,47.65
2018-01-26T06:22:45.958Z,53.85
2018-01-26T06:25:13.429Z,51.95
2018-01-26T06:27:40.897Z,51.63
2018-01-26T06:30:08.351Z,57.62
2018-01-26T06:32:35.920Z,46.53
2018-01-26T06:35:03.476Z,56.08
2018-01-26T06:37:31.045Z,52.00
2018-01-26T06:39:58.512Z,46.58
2018-01-26T06:42:25.972Z,52.38
2018-01-26T06:44:54.214Z,60.65
2018-01-26T06:47:21.689Z,55.20
2018-01-26T06:49:49.167Z,49.22
2018-01-26T06:52:17.390Z,53.17
2018-01-26T06:54:44.877Z,55.63
2018-01-26T06:57:12.344Z,48.67
2018-01-26T06:59:39.803Z,51.47
2018-01-26T07:02:08.075Z,54.22
2018-01-26T07:04:35.552Z,46.90
2018-01-26T07:07:03.791Z,54.75
2018-01-26T07:09:31.244Z,52.97
2018-01-26T07:11:58.815Z,51.70
2018-01-26T07:14:26.275Z,49.35
2018-01-26T07:16:54.546Z,53.60
2018-01-26T07:19:23.557Z,48.47
2018-01-26T07:21:51.009Z,53.75
2018-01-26T07:24:19.249Z,55.97
2018-01-26T07:26:46.782Z,58.80
2018-01-26T07:29:14.265Z,52.70
2018-01-26T07:31:41.725Z,46.92
2018-01-26T07:34:09.204Z,50.60
2018-01-26T07:36:36.713Z,50.97
2018-01-26T07:39:04.169Z,53.15
2018-01-26T07:41:31.663Z,66.85
2018-01-26T07:43:59.127Z,55.17
2018-01-26T07:46:26.596Z,60.72
2018-01-26T07:48:54.053Z,58.17
2018-01-26T07:51:21.531Z,57.17
2018-01-26T07:53:49.054Z,56.13
2018-01-26T07:56:16.511Z,58.90
2018-01-26T07:58:43.968Z,62.40
2018-01-26T08:01:11.520Z,63.22
2018-01-26T08:03:39.071Z,56.97
2018-01-26T08:06:06.532Z,58.65
2018-01-26T08:08:33.992Z,55.40
2018-01-26T08:11:01.452Z,62.35
2018-01-26T08:13:28.915Z,59.78
2018-01-26T08:15:56.381Z,50.95
2018-01-26T08:18:23.925Z,62.15
2018-01-26T08:20:51.393Z,57.90
2018-01-26T08:23:19.047Z,60.88
2018-01-26T08:25:46.501Z,60.72
2018-01-26T08:28:14.052Z,54.22
2018-01-26T08:30:41.613Z,60.58
2018-01-26T08:33:09.079Z,63.67
2018-01-26T08:35:36.530Z,68.22
2018-01-26T08:38:04.001Z,58.33
2018-01-26T08:40:31.456Z,64.03
2018-01-26T08:42:58.923Z,62.70
2018-01-26T08:45:27.144Z,67.47
2018-01-26T08:47:54.621Z,63.47
2018-01-26T08:50:22.076Z,67.20
2018-01-26T08:52:49.644Z,66.75
2018-01-26T08:55:17.653Z,65.53
2018-01-26T08:57:45.186Z,59.13
2018-01-26T09:00:12.656Z,62.45
2018-01-26T09:02:40.885Z,69.18
2018-01-26T09:05:08.347Z,64.95
2018-01-26T09:07:35.825Z,66.95
2018-01-26T09:10:03.299Z,63.20
2018-01-26T09:12:31.557Z,65.50
2018-01-26T09:14:59.025Z,60.12
2018-01-26T09:17:27.340Z,59.10
2018-01-26T09:19:54.800Z,61.90
2018-01-26T09:22:22.260Z,59.63
2018-01-26T09:24:49.747Z,55.55
2018-01-26T09:27:17.308Z,64.07
2018-01-26T09:29:44.781Z,61.83
2018-01-26T09:32:12.254Z,64.95
2018-01-26T09:34:40.513Z,61.15
2018-01-26T09:37:08.779Z,63.75
2018-01-26T09:39:36.380Z,57.67
2018-01-26T09:42:03.893Z,60.90
2018-01-26T09:44:32.129Z,64.18
2018-01-26T09:46:59.634Z,58.25
2018-01-26T09:49:27.093Z,60.00
2018-01-26T09:51:54.556Z,62.55
2018-01-26T09:54:22.780Z,74.05
2018-01-26T09:56:50.271Z,67.35
2018-01-26T09:59:17.886Z,83.20
2018-01-26T10:01:45.352Z,78.40
2018-01-26T10:04:12.852Z,78.65
2018-01-26T10:06:40.317Z,86.03
2018-01-26T10:09:08.575Z,79.47
2018-01-26T10:11:36.041Z,76.95
2018-01-26T10:14:03.510Z,75.07
2018-01-26T10:16:31.744Z,71.93
2018-01-26T10:18:59.209Z,75.05
2018-01-26T10:21:26.669Z,76.93
2018-01-26T10:23:54.180Z,77.93
2018-01-26T10:26:21.803Z,82.57
2018-01-26T10:28:49.352Z,89.50
2018-01-26T10:31:16.818Z,84.32
2018-01-26T10:33:44.278Z,81.68
2018-01-26T10:36:11.728Z,83.90
2018-01-26T10:38:39.250Z,82.65
2018-01-26T10:41:06.740Z,81.43
2018-01-26T10:43:34.225Z,81.68
2018-01-26T10:46:02.482Z,81.35
2018-01-26T10:48:29.945Z,77.50
2018-01-26T10:50:58.204Z,75.47
2018-01-26T10:53:25.770Z,92.57
2018-01-26T10:55:53.235Z,84.80
2018-01-26T10:58:20.692Z,83.20
2018-01-26T11:00:48.158Z,83.25
2018-01-26T11:03:16.466Z,88.45
2018-01-26T11:05:43.985Z,85.07
2018-01-26T11:08:12.223Z,84.45
2018-01-26T11:10:39.706Z,87.90
2018-01-26T11:13:07.264Z,75.10
2018-01-26T11:15:34.815Z,74.70
2018-01-26T11:18:02.367Z,96.15
2018-01-26T11:20:29.942Z,85.30
2018-01-26T11:22:58.179Z,94.00
2018-01-26T11:25:25.643Z,73.22
2018-01-26T11:27:53.157Z,76.53
2018-01-26T11:30:21.393Z,80.20
2018-01-26T11:32:48.881Z,82.85
2018-01-26T11:35:17.117Z,71.60
2018-01-26T11:37:44.575Z,68.25
2018-01-26T11:40:12.032Z,73.45
2018-01-26T11:42:39.600Z,80.68
2018-01-26T11:45:07.096Z,76.62
2018-01-26T11:47:34.569Z,80.12
2018-01-26T11:50:02.081Z,80.55
2018-01-26T11:52:29.541Z,73.25
2018-01-26T11:54:57.100Z,62.95
2018-01-26T11:57:25.473Z,73.72
2018-01-26T11:59:53.034Z,69.68
2018-01-26T12:02:20.496Z,69.60
2018-01-26T12:04:48.041Z,70.35
2018-01-26T12:07:15.602Z,64.62
2018-01-26T12:09:43.146Z,62.30
2018-01-26T12:12:10.604Z,57.60
2018-01-26T12:14:38.072Z,55.65
2018-01-26T12:17:05.555Z,49.25
2018-01-26T12:19:33.780Z,58.72
2018-01-26T12:22:01.240Z,59.15
2018-01-26T12:24:28.716Z,52.80
2018-01-26T12:26:56.192Z,56.55
2018-01-26T12:29:24.440Z,45.45
2018-01-26T12:31:51.901Z,49.78
2018-01-26T12:34:20.901Z,49.90
2018-01-26T12:36:48.361Z,41.58
2018-01-26T12:39:15.922Z,36.58
2018-01-26T12:41:44.247Z,35.60
2018-01-26T12:44:11.707Z,25.50
2018-01-26T12:46:39.209Z,20.02
2018-01-26T12:49:06.767Z,22.15
2018-01-26T12:51:34.348Z,17.48
2018-01-26T12:54:02.580Z,16.42
2018-01-26T12:56:30.082Z,13.02
2018-01-26T12:58:58.328Z,13.02
2018-01-26T13:01:26.616Z,13.30
2018-01-26T13:03:54.164Z,11.18
2018-01-26T13:06:21.725Z,8.48
2018-01-26T13:08:49.280Z,10.68
2018-01-26T13:11:16.751Z,13.05
2018-01-26T13:13:44.263Z,13.70
2018-01-26T13:16:11.719Z,10.55
2018-01-26T13:18:39.167Z,9.25
2018-01-26T13:21:06.728Z,13.38
2018-01-26T13:23:34.283Z,9.93
2018-01-26T13:26:01.769Z,14.02
2018-01-26T13:28:29.226Z,11.90
2018-01-26T13:30:56.701Z,11.02
2018-01-26T13:33:24.178Z,12.65
2018-01-26T13:35:52.396Z,11.32
2018-01-26T13:38:19.920Z,11.25
2018-01-26T13:40:47.336Z,5.95
2018-01-26T13:43:14.792Z,6.30
2018-01-26T13:45:42.356Z,7.95
2018-01-26T13:48:10.632Z,12.18
2018-01-26T13:50:38.183Z,7.70
2018-01-26T13:53:05.642Z,8.15
2018-01-26T13:55:35.032Z,6.10
2018-01-26T13:58:02.490Z,6.53
2018-01-26T14:00:29.943Z,8.02
2018-01-26T14:02:57.452Z,7.45
2018-01-26T14:05:25.693Z,9.63
2018-01-26T14:07:53.228Z,7.68
2018-01-26T14:10:21.400Z,10.38
2018-01-26T14:12:48.936Z,8.93
2018-01-26T14:15:16.405Z,6.55
2018-01-26T14:17:43.957Z,8.25
2018-01-26T14:20:11.497Z,10.07
2018-01-26T14:22:39.029Z,10.63
2018-01-26T14:25:07.002Z,10.23
2018-01-26T14:27:34.444Z,9.23
2018-01-26T14:30:01.905Z,9.55
2018-01-26T14:32:29.364Z,5.57
2018-01-26T14:34:56.857Z,10.57
2018-01-26T14:37:24.334Z,8.63
2018-01-26T14:39:52.400Z,9.57
2018-01-26T14:42:19.862Z,5.93
2018-01-26T14:44:47.311Z,6.65
2018-01-26T14:47:14.774Z,6.78
2018-01-26T14:49:42.267Z,9.60
2018-01-26T14:52:09.725Z,5.22
2018-01-26T14:54:37.183Z,7.22
2018-01-26T14:57:04.652Z,5.82
2018-01-26T14:59:32.204Z,6.25
2018-01-26T15:01:59.668Z,7.40
2018-01-26T15:04:27.208Z,7.05
2018-01-26T15:06:54.675Z,7.12
2018-01-26T15:09:22.127Z,6.47
2018-01-26T15:11:49.585Z,7.57
2018-01-26T15:14:17.140Z,6.93
2018-01-26T15:16:44.688Z,8.82
2018-01-26T15:19:12.264Z,11.82
2018-01-26T15:21:39.723Z,6.05
2018-01-26T15:24:07.176Z,8.30
2018-01-26T15:26:35.593Z,10.60
2018-01-26T15:29:03.037Z,8.18
2018-01-26T15:31:30.564Z,7.32
2018-01-26T15:33:58.024Z,5.50
2018-01-26T15:36:25.578Z,11.73
2018-01-26T15:38:53.028Z,5.90
2018-01-26T15:41:20.500Z,6.45
2018-01-26T15:43:48.043Z,13.50
2018-01-26T15:46:15.506Z,9.43
2018-01-26T15:48:42.977Z,8.90
2018-01-26T15:51:10.522Z,14.30
2018-01-26T15:53:37.982Z,11.98
2018-01-26T15:56:05.427Z,9.55
2018-01-26T15:58:32.997Z,8.70
2018-01-26T16:01:01.237Z,16.27
2018-01-26T16:03:28.700Z,13.15
2018-01-26T16:05:56.238Z,15.32
2018-01-26T16:08:23.687Z,12.95
2018-01-26T16:10:51.150Z,12.80
2018-01-26T16:13:18.641Z,17.73
2018-01-26T16:16:01.979Z,14.43
2018-01-26T16:18:29.536Z,16.10
2018-01-26T16:20:57.096Z,15.15
2018-01-26T16:23:24.657Z,17.15
2018-01-26T16:25:52.220Z,15.35
2018-01-26T16:28:19.678Z,13.02
2018-01-26T16:30:47.131Z,20.62
2018-01-26T16:33:16.096Z,11.88
2018-01-26T16:35:43.576Z,16.35
2018-01-26T16:38:12.548Z,19.77
2018-01-26T16:40:40.013Z,17.20
2018-01-26T16:43:07.476Z,15.68
2018-01-26T16:45:35.036Z,20.02
2018-01-26T16:48:02.498Z,16.25
2018-01-26T16:50:29.959Z,18.00
2018-01-26T16:52:57.420Z,28.58
2018-01-26T16:55:24.871Z,17.80
2018-01-26T16:57:52.332Z,16.67
2018-01-26T17:00:19.888Z,18.67
2018-01-26T17:02:47.451Z,16.02
2018-01-26T17:05:14.996Z,18.75
2018-01-26T17:07:42.456Z,21.45
2018-01-26T17:10:09.916Z,19.05
2018-01-26T17:12:37.637Z,15.57
2018-01-26T17:15:05.084Z,18.60
2018-01-26T17:17:32.562Z,18.17
2018-01-26T17:20:00.062Z,19.90
2018-01-26T17:22:28.325Z,18.60
2018-01-26T17:24:57.292Z,27.73
2018-01-26T17:27:24.875Z,16.62
2018-01-26T17:29:52.436Z,21.65
2018-01-26T17:32:19.933Z,26.70
2018-01-26T17:34:47.452Z,17.83
2018-01-26T17:37:14.910Z,20.25
2018-01-26T17:39:42.383Z,19.45
2018-01-26T17:42:10.644Z,37.08
2018-01-26T17:44:38.253Z,19.48
2018-01-26T17:47:05.713Z,21.40
2018-01-26T17:49:33.167Z,20.45
2018-01-26T17:52:00.637Z,23.70
2018-01-26T17:54:28.106Z,28.02
2018-01-26T17:56:55.565Z,18.05
2018-01-26T17:59:23.029Z,14.55
2018-01-26T18:01:50.488Z,23.02
2018-01-26T18:04:17.952Z,25.70
2018-01-26T18:06:45.403Z,19.87
2018-01-26T18:09:12.889Z,16.67
2018-01-26T18:11:41.112Z,22.62
2018-01-26T18:14:08.568Z,20.85
2018-01-26T18:16:36.039Z,19.27
2018-01-26T18:19:03.513Z,17.85
2018-01-26T18:21:30.974Z,22.60
2018-01-26T18:23:58.431Z,20.80
2018-01-26T18:26:25.908Z,18.08
2018-01-26T18:28:54.144Z,27.98
2018-01-26T18:31:21.715Z,29.37
2018-01-26T18:33:49.273Z,24.77
2018-01-26T18:36:16.741Z,23.00
2018-01-26T18:38:44.294Z,21.33
2018-01-26T18:41:11.759Z,21.70
2018-01-26T18:43:40.066Z,25.88
2018-01-26T18:46:07.592Z,21.15
2018-01-26T18:48:35.141Z,24.12
2018-01-26T18:51:02.596Z,21.37
2018-01-26T18:53:30.152Z,25.62
2018-01-26T18:55:57.655Z,24.08
2018-01-26T18:58:25.869Z,20.42
2018-01-26T19:00:53.323Z,23.12
2018-01-26T19:03:20.891Z,20.02
2018-01-26T19:05:48.352Z,23.05
2018-01-26T19:08:15.821Z,19.42
2018-01-26T19:10:43.373Z,21.48
2018-01-26T19:13:10.920Z,19.05
2018-01-26T19:15:38.493Z,23.77
2018-01-26T19:18:05.961Z,24.55
2018-01-26T19:20:33.500Z,23.98
2018-01-26T19:23:00.986Z,27.92
2018-01-26T19:25:29.226Z,23.40
2018-01-26T19:27:56.796Z,22.08
2018-01-26T19:30:24.284Z,20.80
2018-01-26T19:32:52.508Z,23.23
2018-01-26T19:35:19.981Z,19.42
2018-01-26T19:37:47.544Z,20.73
2018-01-26T19:40:15.100Z,23.35
2018-01-26T19:42:42.567Z,21.17
2018-01-26T19:45:10.117Z,27.25
2018-01-26T19:47:37.581Z,26.35
2018-01-26T19:50:05.144Z,27.13
2018-01-26T19:52:32.746Z,28.73
2018-01-26T19:55:00.208Z,30.33
2018-01-26T19:57:27.673Z,24.12
2018-01-26T19:59:55.156Z,26.95
2018-01-26T20:02:22.619Z,23.87
2018-01-26T20:05:07.913Z,21.83
2018-01-26T20:07:41.920Z,23.60
2018-01-26T20:10:10.185Z,23.73
2018-01-26T20:12:43.363Z,23.92
2018-01-26T20:15:10.819Z,28.15
2018-01-26T20:17:39.792Z,26.23
2018-01-26T20:20:07.272Z,23.87
2018-01-26T20:22:34.837Z,22.77
2018-01-26T20:25:02.296Z,26.62
2018-01-26T20:27:29.849Z,24.27
2018-01-26T20:29:57.308Z,25.55
2018-01-26T20:32:24.874Z,29.77
2018-01-26T20:34:52.351Z,31.90
2018-01-26T20:37:20.576Z,23.52
2018-01-26T20:39:48.056Z,30.55
2018-01-26T20:42:15.517Z,25.12
2018-01-26T20:44:42.981Z,29.52
2018-01-26T20:47:10.528Z,28.15
2018-01-26T20:49:37.978Z,32.00
2018-01-26T20:52:05.541Z,30.30
2018-01-26T20:54:33.005Z,30.52
2018-01-26T20:57:00.652Z,26.75
2018-01-26T20:59:28.124Z,29.23
2018-01-26T21:01:56.352Z,29.83
2018-01-26T21:04:23.826Z,35.35
2018-01-26T21:06:51.290Z,30.58
2018-01-26T21:09:18.917Z,30.08
2018-01-26T21:11:46.393Z,33.42
2018-01-26T21:14:13.852Z,31.42
2018-01-26T21:16:41.319Z,28.95
2018-01-26T21:19:08.853Z,33.65
2018-01-26T21:21:37.065Z,26.67
2018-01-26T21:24:04.527Z,32.60
2018-01-26T21:26:32.005Z,37.47
2018-01-26T21:29:00.310Z,37.47
2018-01-26T21:31:27.755Z,34.75
2018-01-26T21:33:55.267Z,36.45
2018-01-26T21:36:22.815Z,36.92
2018-01-26T21:38:50.289Z,39.83
2018-01-26T21:41:17.744Z,34.05
2018-01-26T21:43:45.208Z,35.70
2018-01-26T21:46:12.756Z,38.60
2018-01-26T21:48:40.316Z,37.45
2018-01-26T21:51:09.305Z,34.20
2018-01-26T21:53:36.860Z,36.67
2018-01-26T21:56:04.429Z,38.47
2018-01-26T21:58:31.979Z,36.10
2018-01-26T22:00:59.490Z,37.97
2018-01-26T22:03:26.975Z,34.95
2018-01-26T22:05:54.445Z,38.38
2018-01-26T22:08:21.899Z,41.88
2018-01-26T22:10:49.365Z,35.75
2018-01-26T22:13:16.831Z,37.97
2018-01-26T22:15:44.380Z,41.45
2018-01-26T22:18:12.013Z,33.88
2018-01-26T22:20:39.479Z,32.72
2018-01-26T22:23:06.948Z,36.17
2018-01-26T22:25:34.412Z,41.95
2018-01-26T22:28:02.642Z,46.45
2018-01-26T22:30:30.135Z,42.38
2018-01-26T22:32:57.595Z,52.00
2018-01-26T22:35:25.061Z,37.78
2018-01-26T22:37:52.616Z,44.85
2018-01-26T22:40:20.167Z,44.72
2018-01-26T22:42:47.653Z,55.22
2018-01-26T22:45:15.892Z,41.95
2018-01-26T22:47:43.423Z,39.40
2018-01-26T22:50:10.980Z,52.58
2018-01-26T22:52:38.481Z,50.42
2018-01-26T22:55:06.036Z,48.45
2018-01-26T22:57:35.020Z,50.17
2018-01-26T23:00:02.494Z,50.12
2018-01-26T23:02:30.050Z,51.15
2018-01-26T23:04:57.609Z,51.22
2018-01-26T23:07:25.084Z,46.45
2018-01-26T23:09:53.313Z,50.53
2018-01-26T23:12:20.800Z,39.25
2018-01-26T23:14:48.378Z,50.55
2018-01-26T23:17:16.606Z,48.97
2018-01-26T23:19:44.083Z,52.92
2018-01-26T23:22:11.645Z,60.63
2018-01-26T23:24:39.113Z,51.45
2018-01-26T23:27:06.615Z,51.65
2018-01-26T23:29:34.113Z,45.25
2018-01-26T23:32:01.568Z,43.08
2018-01-26T23:34:29.028Z,48.55
2018-01-26T23:36:56.598Z,51.63
2018-01-26T23:39:24.144Z,45.83
2018-01-26T23:41:51.706Z,56.47
2018-01-26T23:44:19.185Z,47.90
2018-01-26T23:46:47.407Z,43.58
2018-01-26T23:49:14.954Z,43.95
2018-01-26T23:51:42.409Z,46.67
2018-01-26T23:54:09.877Z,46.05
2018-01-26T23:56:37.364Z,50.05
2018-01-26T23:59:04.880Z,51.40
